sensor_id;sensor_type;location;lat;lon;timestamp;pressure;altitude;pressure_sealevel;temperature;humidity
70925;BME280;58577;52.410;13.242;2022-10-22T00:02:22;100626.34;;;11.58;100.00
70925;BME280;58577;52.410;13.242;2022-10-22T00:05:09;100625.66;;;11.56;100.00
70925;BME280;58577;52.410;13.242;2022-10-22T00:07:55;100627.50;;;11.55;100.00
70925;BME280;58577;52.410;13.242;2022-10-22T00:10:41;100625.66;;;11.56;100.00
70925;BME280;58577;52.410;13.242;2022-10-22T00:13:26;100628.34;;;11.56;100.00
70925;BME280;58577;52.410;13.242;2022-10-22T00:16:13;100627.19;;;11.58;100.00
70925;BME280;58577;52.410;13.242;2022-10-22T00:18:59;100612.75;;;11.59;100.00
70925;BME280;58577;52.410;13.242;2022-10-22T00:21:44;100621.66;;;11.60;100.00
70925;BME280;58577;52.410;13.242;2022-10-22T00:24:31;100608.72;;;11.55;100.00
70925;BME280;58577;52.410;13.242;2022-10-22T00:27:17;100609.00;;;11.52;100.00
70925;BME280;58577;52.410;13.242;2022-10-22T00:30:03;100615.41;;;11.51;100.00
70925;BME280;58577;52.410;13.242;2022-10-22T00:32:49;100603.25;;;11.47;100.00
70925;BME280;58577;52.410;13.242;2022-10-22T00:35:35;100599.88;;;11.45;100.00
70925;BME280;58577;52.410;13.242;2022-10-22T00:38:21;100598.19;;;11.44;100.00
70925;BME280;58577;52.410;13.242;2022-10-22T00:41:07;100602.66;;;11.35;100.00
70925;BME280;58577;52.410;13.242;2022-10-22T00:44:02;100597.63;;;11.32;100.00
70925;BME280;58577;52.410;13.242;2022-10-22T00:46:48;100601.44;;;11.30;100.00
70925;BME280;58577;52.410;13.242;2022-10-22T00:49:33;100610.72;;;11.35;100.00
70925;BME280;58577;52.410;13.242;2022-10-22T00:52:20;100617.31;;;11.41;100.00
70925;BME280;58577;52.410;13.242;2022-10-22T00:55:06;100615.63;;;11.40;100.00
70925;BME280;58577;52.410;13.242;2022-10-22T00:57:53;100620.53;;;11.45;100.00
70925;BME280;58577;52.410;13.242;2022-10-22T01:00:40;100633.94;;;11.63;100.00
70925;BME280;58577;52.410;13.242;2022-10-22T01:03:27;100639.00;;;11.66;100.00
70925;BME280;58577;52.410;13.242;2022-10-22T01:06:20;100638.16;;;11.65;100.00
70925;BME280;58577;52.410;13.242;2022-10-22T01:15:23;100641.69;;;11.66;100.00
70925;BME280;58577;52.410;13.242;2022-10-22T01:18:23;100614.19;;;11.72;100.00
70925;BME280;58577;52.410;13.242;2022-10-22T01:21:30;100602.28;;;11.74;100.00
70925;BME280;58577;52.410;13.242;2022-10-22T01:30:35;100590.94;;;11.63;100.00
70925;BME280;58577;52.410;13.242;2022-10-22T01:33:24;100588.56;;;11.59;100.00
70925;BME280;58577;52.410;13.242;2022-10-22T01:36:11;100595.94;;;11.57;100.00
70925;BME280;58577;52.410;13.242;2022-10-22T01:39:00;100593.56;;;11.54;100.00
70925;BME280;58577;52.410;13.242;2022-10-22T01:41:46;100606.31;;;11.52;100.00
70925;BME280;58577;52.410;13.242;2022-10-22T01:44:33;100608.47;;;11.49;100.00
70925;BME280;58577;52.410;13.242;2022-10-22T01:47:35;100603.56;;;11.44;100.00
70925;BME280;58577;52.410;13.242;2022-10-22T01:51:06;100612.81;;;11.41;100.00
70925;BME280;58577;52.410;13.242;2022-10-22T01:54:00;100610.25;;;11.40;100.00
70925;BME280;58577;52.410;13.242;2022-10-22T01:57:32;100620.31;;;11.38;100.00
70925;BME280;58577;52.410;13.242;2022-10-22T02:00:21;100618.63;;;11.37;100.00
70925;BME280;58577;52.410;13.242;2022-10-22T02:03:19;100625.16;;;11.34;100.00
70925;BME280;58577;52.410;13.242;2022-10-22T02:06:13;100619.09;;;11.32;100.00
70925;BME280;58577;52.410;13.242;2022-10-22T02:09:01;100628.97;;;11.32;100.00
70925;BME280;58577;52.410;13.242;2022-10-22T02:11:48;100627.59;;;11.28;100.00
70925;BME280;58577;52.410;13.242;2022-10-22T02:14:37;100634.34;;;11.32;100.00
70925;BME280;58577;52.410;13.242;2022-10-22T02:17:26;100624.63;;;11.31;100.00
70925;BME280;58577;52.410;13.242;2022-10-22T02:20:17;100623.78;;;11.30;100.00
70925;BME280;58577;52.410;13.242;2022-10-22T02:23:04;100614.34;;;11.26;100.00
70925;BME280;58577;52.410;13.242;2022-10-22T02:26:03;100609.44;;;11.21;100.00
70925;BME280;58577;52.410;13.242;2022-10-22T02:28:58;100607.06;;;11.18;100.00
70925;BME280;58577;52.410;13.242;2022-10-22T02:31:49;100616.59;;;11.13;100.00
70925;BME280;58577;52.410;13.242;2022-10-22T02:34:38;100617.03;;;11.08;100.00
70925;BME280;58577;52.410;13.242;2022-10-22T02:37:24;100614.66;;;11.05;100.00
70925;BME280;58577;52.410;13.242;2022-10-22T02:40:11;100613.97;;;11.03;100.00
70925;BME280;58577;52.410;13.242;2022-10-22T02:42:57;100621.34;;;11.01;100.00
70925;BME280;58577;52.410;13.242;2022-10-22T02:45:44;100619.63;;;11.00;100.00
70925;BME280;58577;52.410;13.242;2022-10-22T02:48:30;100620.63;;;10.99;100.00
70925;BME280;58577;52.410;13.242;2022-10-22T02:51:15;100622.31;;;11.00;100.00
70925;BME280;58577;52.410;13.242;2022-10-22T02:54:01;100622.31;;;11.00;100.00
70925;BME280;58577;52.410;13.242;2022-10-22T02:56:47;100614.97;;;11.02;100.00
70925;BME280;58577;52.410;13.242;2022-10-22T02:59:33;100602.63;;;11.09;100.00
70925;BME280;58577;52.410;13.242;2022-10-22T03:02:18;100611.03;;;11.14;100.00
70925;BME280;58577;52.410;13.242;2022-10-22T03:05:04;100610.41;;;11.02;100.00
70925;BME280;58577;52.410;13.242;2022-10-22T03:07:50;100606.75;;;11.04;100.00
70925;BME280;58577;52.410;13.242;2022-10-22T03:10:36;100605.91;;;11.03;100.00
70925;BME280;58577;52.410;13.242;2022-10-22T03:13:22;100605.22;;;11.01;100.00
70925;BME280;58577;52.410;13.242;2022-10-22T03:16:07;100602.84;;;10.98;100.00
70925;BME280;58577;52.410;13.242;2022-10-22T03:18:53;100604.69;;;10.97;100.00
70925;BME280;58577;52.410;13.242;2022-10-22T03:21:55;100603.81;;;10.97;100.00
70925;BME280;58577;52.410;13.242;2022-10-22T03:24:43;100607.53;;;10.96;100.00
70925;BME280;58577;52.410;13.242;2022-10-22T03:27:30;100606.13;;;10.92;100.00
70925;BME280;58577;52.410;13.242;2022-10-22T03:30:16;100608.69;;;10.93;100.00
70925;BME280;58577;52.410;13.242;2022-10-22T03:33:02;100605.53;;;10.98;100.00
70925;BME280;58577;52.410;13.242;2022-10-22T03:35:48;100601.59;;;10.92;100.00
70925;BME280;58577;52.410;13.242;2022-10-22T03:38:37;100608.97;;;10.90;100.00
70925;BME280;58577;52.410;13.242;2022-10-22T03:41:23;100608.97;;;10.90;100.00
70925;BME280;58577;52.410;13.242;2022-10-22T03:44:10;100604.44;;;10.91;100.00
70925;BME280;58577;52.410;13.242;2022-10-22T03:46:56;100611.81;;;10.89;100.00
70925;BME280;58577;52.410;13.242;2022-10-22T03:49:42;100614.50;;;10.89;100.00
70925;BME280;58577;52.410;13.242;2022-10-22T03:52:28;100614.50;;;10.89;100.00
70925;BME280;58577;52.410;13.242;2022-10-22T03:55:13;100617.16;;;10.89;100.00
70925;BME280;58577;52.410;13.242;2022-10-22T03:57:59;100631.59;;;10.88;100.00
70925;BME280;58577;52.410;13.242;2022-10-22T04:00:45;100630.59;;;10.89;100.00
70925;BME280;58577;52.410;13.242;2022-10-22T04:03:31;100631.59;;;10.88;100.00
70925;BME280;58577;52.410;13.242;2022-10-22T04:06:16;100631.59;;;10.88;100.00
70925;BME280;58577;52.410;13.242;2022-10-22T04:09:02;100640.50;;;10.88;100.00
70925;BME280;58577;52.410;13.242;2022-10-22T04:11:48;100645.03;;;10.88;100.00
70925;BME280;58577;52.410;13.242;2022-10-22T04:14:34;100650.63;;;10.94;100.00
70925;BME280;58577;52.410;13.242;2022-10-22T04:17:20;100652.00;;;10.98;100.00
70925;BME280;58577;52.410;13.242;2022-10-22T04:20:06;100654.63;;;11.08;100.00
70925;BME280;58577;52.410;13.242;2022-10-22T04:22:51;100659.06;;;11.17;100.00
70925;BME280;58577;52.410;13.242;2022-10-22T04:25:37;100659.06;;;11.17;100.00
70925;BME280;58577;52.410;13.242;2022-10-22T04:28:23;100656.47;;;11.08;100.00
70925;BME280;58577;52.410;13.242;2022-10-22T04:31:10;100654.25;;;11.03;100.00
70925;BME280;58577;52.410;13.242;2022-10-22T04:33:58;100650.88;;;11.01;100.00
70925;BME280;58577;52.410;13.242;2022-10-22T04:36:44;100654.38;;;11.01;100.00
70925;BME280;58577;52.410;13.242;2022-10-22T04:39:29;100653.69;;;10.99;100.00
70925;BME280;58577;52.410;13.242;2022-10-22T04:42:15;100653.38;;;11.02;100.00
70925;BME280;58577;52.410;13.242;2022-10-22T04:45:01;100641.59;;;11.13;100.00
70925;BME280;58577;52.410;13.242;2022-10-22T04:47:47;100642.97;;;10.99;100.00
70925;BME280;58577;52.410;13.242;2022-10-22T04:50:33;100641.59;;;10.95;100.00
70925;BME280;58577;52.410;13.242;2022-10-22T04:53:18;100629.97;;;10.95;100.00
70925;BME280;58577;52.410;13.242;2022-10-22T04:56:13;100636.78;;;10.89;100.00
70925;BME280;58577;52.410;13.242;2022-10-22T04:59:04;100634.44;;;10.86;100.00
70925;BME280;58577;52.410;13.242;2022-10-22T05:01:50;100639.13;;;10.84;100.00
70925;BME280;58577;52.410;13.242;2022-10-22T05:04:36;100646.47;;;10.82;100.00
70925;BME280;58577;52.410;13.242;2022-10-22T05:07:22;100651.97;;;10.80;100.00
70925;BME280;58577;52.410;13.242;2022-10-22T05:10:08;100655.66;;;10.79;100.00
70925;BME280;58577;52.410;13.242;2022-10-22T05:12:54;100659.50;;;10.77;100.00
70925;BME280;58577;52.410;13.242;2022-10-22T05:15:40;100655.41;;;10.73;100.00
70925;BME280;58577;52.410;13.242;2022-10-22T05:18:25;100648.53;;;10.70;100.00
70925;BME280;58577;52.410;13.242;2022-10-22T05:21:14;100654.03;;;10.69;100.00
70925;BME280;58577;52.410;13.242;2022-10-22T05:24:00;100649.66;;;10.68;100.00
70925;BME280;58577;52.410;13.242;2022-10-22T05:26:53;100653.47;;;10.65;100.00
70925;BME280;58577;52.410;13.242;2022-10-22T05:29:39;100663.81;;;10.60;100.00
70925;BME280;58577;52.410;13.242;2022-10-22T05:32:25;100661.44;;;10.57;100.00
70925;BME280;58577;52.410;13.242;2022-10-22T05:35:10;100666.13;;;10.55;100.00
70925;BME280;58577;52.410;13.242;2022-10-22T05:37:56;100673.28;;;10.54;100.00
70925;BME280;58577;52.410;13.242;2022-10-22T05:40:42;100671.75;;;10.52;100.00
70925;BME280;58577;52.410;13.242;2022-10-22T05:43:28;100668.25;;;10.51;100.00
70925;BME280;58577;52.410;13.242;2022-10-22T05:46:19;100663.16;;;10.48;100.00
70925;BME280;58577;52.410;13.242;2022-10-22T05:49:06;100672.78;;;10.51;100.00
70925;BME280;58577;52.410;13.242;2022-10-22T05:51:52;100677.28;;;10.50;100.00
70925;BME280;58577;52.410;13.242;2022-10-22T05:54:38;100680.81;;;10.51;100.00
70925;BME280;58577;52.410;13.242;2022-10-22T05:57:23;100673.75;;;10.50;100.00
70925;BME280;58577;52.410;13.242;2022-10-22T06:00:10;100677.59;;;10.47;100.00
70925;BME280;58577;52.410;13.242;2022-10-22T06:02:55;100683.38;;;10.42;100.00
70925;BME280;58577;52.410;13.242;2022-10-22T06:05:41;100672.97;;;10.39;100.00
70925;BME280;58577;52.410;13.242;2022-10-22T06:08:28;100676.75;;;10.37;100.00
70925;BME280;58577;52.410;13.242;2022-10-22T06:11:14;100681.28;;;10.36;100.00
70925;BME280;58577;52.410;13.242;2022-10-22T06:14:03;100683.97;;;10.36;100.00
70925;BME280;58577;52.410;13.242;2022-10-22T06:16:49;100686.66;;;10.36;100.00
70925;BME280;58577;52.410;13.242;2022-10-22T06:19:35;100690.34;;;10.35;100.00
70925;BME280;58577;52.410;13.242;2022-10-22T06:22:21;100699.09;;;10.37;100.00
70925;BME280;58577;52.410;13.242;2022-10-22T06:25:07;100697.94;;;10.40;100.00
70925;BME280;58577;52.410;13.242;2022-10-22T06:27:53;100708.53;;;10.41;100.00
70925;BME280;58577;52.410;13.242;2022-10-22T06:30:39;100717.41;;;10.42;100.00
70925;BME280;58577;52.410;13.242;2022-10-22T06:33:25;100724.03;;;10.48;100.00
70925;BME280;58577;52.410;13.242;2022-10-22T06:36:14;100713.84;;;10.51;100.00
70925;BME280;58577;52.410;13.242;2022-10-22T06:39:00;100729.50;;;10.56;100.00
70925;BME280;58577;52.410;13.242;2022-10-22T06:41:46;100728.19;;;10.60;100.00
70925;BME280;58577;52.410;13.242;2022-10-22T06:44:35;100722.25;;;10.66;100.00
70925;BME280;58577;52.410;13.242;2022-10-22T06:47:21;100730.69;;;10.71;100.00
70925;BME280;58577;52.410;13.242;2022-10-22T06:50:07;100730.28;;;10.76;100.00
70925;BME280;58577;52.410;13.242;2022-10-22T06:52:53;100735.19;;;10.80;100.00
70925;BME280;58577;52.410;13.242;2022-10-22T06:55:39;100725.00;;;10.84;100.00
70925;BME280;58577;52.410;13.242;2022-10-22T06:58:24;100730.59;;;10.91;100.00
70925;BME280;58577;52.410;13.242;2022-10-22T07:01:12;100729.31;;;10.95;100.00
70925;BME280;58577;52.410;13.242;2022-10-22T07:03:58;100730.81;;;11.07;100.00
70925;BME280;58577;52.410;13.242;2022-10-22T07:06:43;100737.00;;;11.08;100.00
70925;BME280;58577;52.410;13.242;2022-10-22T07:09:29;100737.56;;;11.11;100.00
70925;BME280;58577;52.410;13.242;2022-10-22T07:12:15;100732.19;;;11.11;100.00
70925;BME280;58577;52.410;13.242;2022-10-22T07:15:01;100731.56;;;11.17;100.00
70925;BME280;58577;52.410;13.242;2022-10-22T07:17:47;100735.50;;;11.23;100.00
70925;BME280;58577;52.410;13.242;2022-10-22T07:20:33;100736.28;;;11.33;100.00
70925;BME280;58577;52.410;13.242;2022-10-22T07:23:18;100738.88;;;11.43;100.00
70925;BME280;58577;52.410;13.242;2022-10-22T07:26:08;100749.75;;;11.51;100.00
70925;BME280;58577;52.410;13.242;2022-10-22T07:28:54;100757.88;;;11.59;100.00
70925;BME280;58577;52.410;13.242;2022-10-22T07:31:40;100745.81;;;11.64;100.00
70925;BME280;58577;52.410;13.242;2022-10-22T07:34:26;100768.28;;;11.63;100.00
70925;BME280;58577;52.410;13.242;2022-10-22T07:37:12;100773.91;;;11.69;100.00
70925;BME280;58577;52.410;13.242;2022-10-22T07:39:58;100782.97;;;11.68;100.00
70925;BME280;58577;52.410;13.242;2022-10-22T07:42:44;100793.13;;;11.74;100.00
70925;BME280;58577;52.410;13.242;2022-10-22T07:45:29;100795.34;;;11.79;100.00
70925;BME280;58577;52.410;13.242;2022-10-22T07:48:15;100791.50;;;11.81;100.00
70925;BME280;58577;52.410;13.242;2022-10-22T07:51:02;100791.63;;;11.80;100.00
70925;BME280;58577;52.410;13.242;2022-10-22T07:53:48;100791.59;;;11.90;100.00
70925;BME280;58577;52.410;13.242;2022-10-22T07:56:33;100794.44;;;11.88;100.00
70925;BME280;58577;52.410;13.242;2022-10-22T07:59:19;100792.72;;;11.87;100.00
70925;BME280;58577;52.410;13.242;2022-10-22T08:02:05;100793.28;;;11.91;100.00
70925;BME280;58577;52.410;13.242;2022-10-22T08:04:51;100787.63;;;11.94;100.00
70925;BME280;58577;52.410;13.242;2022-10-22T08:07:37;100789.34;;;12.03;100.00
70925;BME280;58577;52.410;13.242;2022-10-22T08:10:23;100798.59;;;12.00;100.00
70925;BME280;58577;52.410;13.242;2022-10-22T08:13:09;100805.81;;;12.00;100.00
70925;BME280;58577;52.410;13.242;2022-10-22T08:15:59;100799.59;;;11.99;100.00
70925;BME280;58577;52.410;13.242;2022-10-22T08:18:44;100799.13;;;12.04;100.00
70925;BME280;58577;52.410;13.242;2022-10-22T08:21:30;100810.88;;;12.03;100.00
70925;BME280;58577;52.410;13.242;2022-10-22T08:24:16;100807.03;;;12.06;100.00
70925;BME280;58577;52.410;13.242;2022-10-22T08:27:02;100820.16;;;12.09;100.00
70925;BME280;58577;52.410;13.242;2022-10-22T08:29:47;100821.53;;;12.13;100.00
70925;BME280;58577;52.410;13.242;2022-10-22T08:32:33;100824.63;;;12.18;100.00
70925;BME280;58577;52.410;13.242;2022-10-22T08:35:19;100829.31;;;12.16;100.00
70925;BME280;58577;52.410;13.242;2022-10-22T08:38:05;100828.38;;;12.25;100.00
70925;BME280;58577;52.410;13.242;2022-10-22T08:40:53;100828.13;;;12.36;100.00
70925;BME280;58577;52.410;13.242;2022-10-22T08:46:56;100835.69;;;12.59;100.00
70925;BME280;58577;52.410;13.242;2022-10-22T08:49:44;100834.09;;;12.74;100.00
70925;BME280;58577;52.410;13.242;2022-10-22T08:52:31;100834.84;;;12.85;100.00
70925;BME280;58577;52.410;13.242;2022-10-22T08:55:18;100839.63;;;12.99;100.00
70925;BME280;58577;52.410;13.242;2022-10-22T08:58:16;100840.03;;;13.12;100.00
70925;BME280;58577;52.410;13.242;2022-10-22T09:01:16;100835.16;;;13.08;100.00
70925;BME280;58577;52.410;13.242;2022-10-22T09:04:18;100839.88;;;13.14;100.00
70925;BME280;58577;52.410;13.242;2022-10-22T09:07:09;100840.44;;;13.26;100.00
70925;BME280;58577;52.410;13.242;2022-10-22T09:09:56;100841.31;;;13.34;100.00
70925;BME280;58577;52.410;13.242;2022-10-22T09:12:44;100840.50;;;13.42;100.00
70925;BME280;58577;52.410;13.242;2022-10-22T09:15:31;100845.28;;;13.56;100.00
70925;BME280;58577;52.410;13.242;2022-10-22T09:18:41;100848.84;;;13.65;100.00
70925;BME280;58577;52.410;13.242;2022-10-22T09:21:54;100852.06;;;13.77;100.00
70925;BME280;58577;52.410;13.242;2022-10-22T09:24:46;100860.50;;;13.82;100.00
70925;BME280;58577;52.410;13.242;2022-10-22T09:27:32;100858.16;;;13.87;100.00
70925;BME280;58577;52.410;13.242;2022-10-22T09:30:21;100868.44;;;13.84;100.00
70925;BME280;58577;52.410;13.242;2022-10-22T09:35:55;100865.44;;;13.95;100.00
70925;BME280;58577;52.410;13.242;2022-10-22T09:38:48;100868.50;;;14.08;100.00
70925;BME280;58577;52.410;13.242;2022-10-22T09:41:34;100872.19;;;14.07;100.00
70925;BME280;58577;52.410;13.242;2022-10-22T09:44:20;100871.19;;;14.33;100.00
70925;BME280;58577;52.410;13.242;2022-10-22T09:47:26;100873.72;;;14.43;100.00
70925;BME280;58577;52.410;13.242;2022-10-22T09:50:21;100876.41;;;14.75;100.00
70925;BME280;58577;52.410;13.242;2022-10-22T09:53:36;100872.53;;;14.53;100.00
70925;BME280;58577;52.410;13.242;2022-10-22T09:56:35;100873.22;;;14.55;100.00
70925;BME280;58577;52.410;13.242;2022-10-22T09:59:31;100874.41;;;14.61;100.00
70925;BME280;58577;52.410;13.242;2022-10-22T10:02:26;100878.59;;;14.55;100.00
70925;BME280;58577;52.410;13.242;2022-10-22T10:05:24;100881.34;;;14.72;100.00
70925;BME280;58577;52.410;13.242;2022-10-22T10:08:13;100881.63;;;14.93;100.00
70925;BME280;58577;52.410;13.242;2022-10-22T10:11:13;100886.16;;;15.09;100.00
70925;BME280;58577;52.410;13.242;2022-10-22T10:14:08;100881.09;;;14.98;100.00
70925;BME280;58577;52.410;13.242;2022-10-22T10:17:10;100883.50;;;14.85;100.00
70925;BME280;58577;52.410;13.242;2022-10-22T10:20:12;100891.09;;;14.89;100.00
70925;BME280;58577;52.410;13.242;2022-10-22T10:23:12;100884.19;;;14.95;100.00
70925;BME280;58577;52.410;13.242;2022-10-22T10:26:55;100882.63;;;14.92;100.00
70925;BME280;58577;52.410;13.242;2022-10-22T10:29:55;100878.94;;;14.85;100.00
70925;BME280;58577;52.410;13.242;2022-10-22T10:33:29;100888.25;;;14.74;100.00
70925;BME280;58577;52.410;13.242;2022-10-22T10:39:32;100876.44;;;14.67;100.00
70925;BME280;58577;52.410;13.242;2022-10-22T10:42:32;100885.22;;;14.69;100.00
70925;BME280;58577;52.410;13.242;2022-10-22T10:45:49;100885.84;;;14.96;100.00
70925;BME280;58577;52.410;13.242;2022-10-22T10:49:10;100887.47;;;15.61;100.00
70925;BME280;58577;52.410;13.242;2022-10-22T10:55:37;100889.25;;;16.55;100.00
70925;BME280;58577;52.410;13.242;2022-10-22T10:58:41;100892.81;;;16.09;100.00
70925;BME280;58577;52.410;13.242;2022-10-22T11:01:53;100890.78;;;16.34;100.00
70925;BME280;58577;52.410;13.242;2022-10-22T11:04:51;100889.63;;;16.66;100.00
70925;BME280;58577;52.410;13.242;2022-10-22T11:07:57;100886.19;;;16.73;100.00
70925;BME280;58577;52.410;13.242;2022-10-22T11:10:45;100890.38;;;16.60;100.00
70925;BME280;58577;52.410;13.242;2022-10-22T11:13:40;100892.06;;;16.84;100.00
70925;BME280;58577;52.410;13.242;2022-10-22T11:16:34;100887.28;;;16.86;100.00
70925;BME280;58577;52.410;13.242;2022-10-22T11:19:23;100889.25;;;16.93;99.32
70925;BME280;58577;52.410;13.242;2022-10-22T11:22:18;100883.38;;;16.89;100.00
70925;BME280;58577;52.410;13.242;2022-10-22T11:25:22;100888.25;;;16.70;100.00
70925;BME280;58577;52.410;13.242;2022-10-22T11:28:24;100885.44;;;17.46;97.45
70925;BME280;58577;52.410;13.242;2022-10-22T11:31:14;100886.56;;;17.07;98.25
70925;BME280;58577;52.410;13.242;2022-10-22T11:37:00;100882.88;;;16.85;100.00
70925;BME280;58577;52.410;13.242;2022-10-22T11:39:56;100882.63;;;16.95;100.00
70925;BME280;58577;52.410;13.242;2022-10-22T11:42:49;100879.28;;;17.08;100.00
70925;BME280;58577;52.410;13.242;2022-10-22T11:45:41;100879.53;;;17.28;99.57
70925;BME280;58577;52.410;13.242;2022-10-22T11:48:34;100881.50;;;17.34;96.81
70925;BME280;58577;52.410;13.242;2022-10-22T11:51:47;100884.19;;;17.64;97.76
70925;BME280;58577;52.410;13.242;2022-10-22T11:57:28;100881.56;;;18.07;93.52
70925;BME280;58577;52.410;13.242;2022-10-22T12:00:45;100885.06;;;18.01;89.67
70925;BME280;58577;52.410;13.242;2022-10-22T12:06:19;100884.81;;;18.39;86.20
70925;BME280;58577;52.410;13.242;2022-10-22T12:09:05;100877.28;;;18.62;86.35
70925;BME280;58577;52.410;13.242;2022-10-22T12:11:51;100882.88;;;18.82;85.01
70925;BME280;58577;52.410;13.242;2022-10-22T12:14:51;100886.63;;;19.10;88.10
70925;BME280;58577;52.410;13.242;2022-10-22T12:17:37;100884.88;;;19.30;83.97
70925;BME280;58577;52.410;13.242;2022-10-22T12:20:24;100889.75;;;19.48;82.50
70925;BME280;58577;52.410;13.242;2022-10-22T12:23:11;100884.31;;;19.07;81.11
70925;BME280;58577;52.410;13.242;2022-10-22T12:25:58;100889.22;;;19.24;80.77
70925;BME280;58577;52.410;13.242;2022-10-22T12:28:43;100888.28;;;19.45;80.75
70925;BME280;58577;52.410;13.242;2022-10-22T12:31:35;100883.88;;;19.44;81.59
70925;BME280;58577;52.410;13.242;2022-10-22T12:34:23;100883.16;;;19.29;82.40
70925;BME280;58577;52.410;13.242;2022-10-22T12:37:09;100889.66;;;19.28;82.11
70925;BME280;58577;52.410;13.242;2022-10-22T12:39:55;100890.41;;;19.15;82.19
70925;BME280;58577;52.410;13.242;2022-10-22T12:42:47;100887.44;;;19.45;78.02
70925;BME280;58577;52.410;13.242;2022-10-22T12:45:33;100877.66;;;19.57;79.31
70925;BME280;58577;52.410;13.242;2022-10-22T12:48:29;100888.94;;;19.54;78.55
70925;BME280;58577;52.410;13.242;2022-10-22T12:51:18;100892.09;;;19.58;77.31
70925;BME280;58577;52.410;13.242;2022-10-22T12:54:28;100874.00;;;19.37;80.31
70925;BME280;58577;52.410;13.242;2022-10-22T12:57:17;100888.03;;;19.40;78.54
70925;BME280;58577;52.410;13.242;2022-10-22T13:00:17;100891.31;;;19.22;78.55
70925;BME280;58577;52.410;13.242;2022-10-22T13:03:05;100881.59;;;19.07;79.89
70925;BME280;58577;52.410;13.242;2022-10-22T13:05:51;100888.66;;;19.01;78.47
70925;BME280;58577;52.410;13.242;2022-10-22T13:08:37;100895.09;;;18.93;77.86
70925;BME280;58577;52.410;13.242;2022-10-22T13:14:49;100888.72;;;18.58;80.61
70925;BME280;58577;52.410;13.242;2022-10-22T13:17:39;100898.78;;;18.36;80.96
70925;BME280;58577;52.410;13.242;2022-10-22T13:20:25;100890.31;;;18.24;81.09
70925;BME280;58577;52.410;13.242;2022-10-22T13:23:19;100889.91;;;18.05;82.38
70925;BME280;58577;52.410;13.242;2022-10-22T13:26:14;100888.78;;;18.00;82.19
70925;BME280;58577;52.410;13.242;2022-10-22T13:29:02;100893.19;;;18.01;81.95
70925;BME280;58577;52.410;13.242;2022-10-22T13:31:53;100896.03;;;17.93;82.52
70925;BME280;58577;52.410;13.242;2022-10-22T13:34:39;100897.16;;;17.83;83.11
70925;BME280;58577;52.410;13.242;2022-10-22T13:37:25;100901.00;;;17.89;81.64
70925;BME280;58577;52.410;13.242;2022-10-22T13:40:13;100898.84;;;17.84;81.83
70925;BME280;58577;52.410;13.242;2022-10-22T13:42:59;100899.75;;;17.77;83.76
70925;BME280;58577;52.410;13.242;2022-10-22T13:45:46;100905.84;;;17.79;84.08
70925;BME280;58577;52.410;13.242;2022-10-22T13:48:33;100901.28;;;17.79;84.22
70925;BME280;58577;52.410;13.242;2022-10-22T13:51:21;100907.56;;;17.65;84.89
70925;BME280;58577;52.410;13.242;2022-10-22T13:54:13;100911.88;;;17.59;85.76
70925;BME280;58577;52.410;13.242;2022-10-22T13:57:00;100917.41;;;17.51;85.16
70925;BME280;58577;52.410;13.242;2022-10-22T13:59:46;100908.97;;;17.46;85.21
70925;BME280;58577;52.410;13.242;2022-10-22T14:02:32;100908.31;;;17.44;84.00
70925;BME280;58577;52.410;13.242;2022-10-22T14:05:18;100909.38;;;17.28;87.28
70925;BME280;58577;52.410;13.242;2022-10-22T14:08:10;100914.44;;;17.31;84.88
70925;BME280;58577;52.410;13.242;2022-10-22T14:10:56;100916.97;;;17.33;83.28
70925;BME280;58577;52.410;13.242;2022-10-22T14:13:42;100908.53;;;17.27;82.61
70925;BME280;58577;52.410;13.242;2022-10-22T14:16:28;100914.44;;;17.31;83.00
70925;BME280;58577;52.410;13.242;2022-10-22T14:19:16;100914.59;;;17.15;83.60
70925;BME280;58577;52.410;13.242;2022-10-22T14:22:02;100911.16;;;17.06;85.25
70925;BME280;58577;52.410;13.242;2022-10-22T14:24:48;100915.06;;;17.03;85.54
70925;BME280;58577;52.410;13.242;2022-10-22T14:27:34;100911.78;;;16.93;85.79
70925;BME280;58577;52.410;13.242;2022-10-22T14:30:22;100924.19;;;16.87;86.57
70925;BME280;58577;52.410;13.242;2022-10-22T14:36:00;100927.75;;;16.88;87.98
70925;BME280;58577;52.410;13.242;2022-10-22T14:38:47;100932.19;;;16.81;89.94
70925;BME280;58577;52.410;13.242;2022-10-22T14:41:33;100922.63;;;16.93;88.54
70925;BME280;58577;52.410;13.242;2022-10-22T14:44:18;100929.50;;;16.81;89.36
70925;BME280;58577;52.410;13.242;2022-10-22T14:47:04;100930.88;;;16.77;89.38
70925;BME280;58577;52.410;13.242;2022-10-22T14:49:50;100942.97;;;16.66;90.50
70925;BME280;58577;52.410;13.242;2022-10-22T14:52:36;100939.97;;;16.61;91.22
70925;BME280;58577;52.410;13.242;2022-10-22T14:55:22;100942.75;;;16.52;92.09
70925;BME280;58577;52.410;13.242;2022-10-22T14:58:07;100940.22;;;16.51;92.04
70925;BME280;58577;52.410;13.242;2022-10-22T15:00:53;100940.28;;;16.43;92.39
70925;BME280;58577;52.410;13.242;2022-10-22T15:03:39;100943.72;;;16.37;92.16
70925;BME280;58577;52.410;13.242;2022-10-22T15:06:24;100940.41;;;16.26;93.00
70925;BME280;58577;52.410;13.242;2022-10-22T15:09:10;100942.00;;;16.12;94.38